This is the latest recevied weather packets stored in our database for station/object KC3QLX. If no packets are shown the sender has not sent any weather packets the latest 10 day(s).
| Time | Temp. | Humidity | Pressure | Rain* | Wind** | Luminosity | Snow |
|---|---|---|---|---|---|---|---|
| 1778193510 | 15.56° C | 48% | 1007.6 hPa | 0 mm | - | 44 W/m² | - |
| 1778193207 | 15.56° C | 47% | 1007.5 hPa | 0 mm | - | 47 W/m² | - |
| 1778192904 | 16.67° C | 40% | 1007.6 hPa | 0 mm | - | 55 W/m² | - |
| 1778192600 | 17.22° C | 44% | 1007.4 hPa | 0 mm | - | 167 W/m² | - |
| 1778192297 | 16.67° C | 42% | 1007.6 hPa | 0 mm | - | 93 W/m² | - |
| 1778191994 | 15.56° C | 44% | 1007.8 hPa | 0 mm | - | 207 W/m² | - |
| 1778191690 | 15.56° C | 47% | 1007.4 hPa | 0 mm | - | 93 W/m² | - |
| 1778191389 | 16.11° C | 44% | 1007.6 hPa | 0 mm | - | 238 W/m² | - |
| 1778191084 | 16.67° C | 41% | 1007.6 hPa | 0 mm | - | 104 W/m² | - |
| 1778190782 | 16.11° C | 46% | 1007.6 hPa | 0 mm | - | 287 W/m² | - |
| 1778190479 | 16.11° C | 45% | 1007.8 hPa | 0 mm | - | 83 W/m² | - |
| 1778190176 | 16.11° C | 43% | 1007.7 hPa | 0 mm | - | 106 W/m² | - |
| 1778189871 | 16.11° C | 44% | 1007.7 hPa | 0 mm | - | 347 W/m² | - |
| 1778189568 | 16.11° C | 42% | 1007.8 hPa | 0 mm | - | 122 W/m² | - |
| 1778189265 | 15.56° C | 46% | 1007.6 hPa | 0 mm | - | 154 W/m² | - |
| 1778188961 | 15.56° C | 47% | 1007.7 hPa | 0 mm | - | 86 W/m² | - |
| 1778188658 | 15.56° C | 46% | 1007.7 hPa | 0 mm | - | 74 W/m² | - |
| 1778188354 | 16.11° C | 45% | 1008 hPa | 0 mm | - | 76 W/m² | - |
| 1778188051 | 16.67° C | 41% | 1007.8 hPa | 0 mm | - | 78 W/m² | - |
| 1778187748 | 17.22° C | 41% | 1007.8 hPa | 0 mm | - | 137 W/m² | - |
| 1778187444 | 17.78° C | 41% | 1007.7 hPa | 0 mm | - | 476 W/m² | - |
| 1778187141 | 17.78° C | 39% | 1007.7 hPa | 0 mm | - | 483 W/m² | - |
| 1778186837 | 17.78° C | 37% | 1007.7 hPa | 0 mm | - | 504 W/m² | - |
| 1778186536 | 17.78° C | 39% | 1008 hPa | 0 mm | - | 528 W/m² | - |
| 1778186233 | 16.67° C | 40% | 1007.9 hPa | 0 mm | - | 499 W/m² | - |
* Rain latest hour (hover to see other rain measurements)
** Current wind speed in m/s (hover to see current wind gust speed)